sensor_id;sensor_type;location;lat;lon;timestamp;temperature;humidity
2687;DHT22;1353;51.386;7.028;2022-10-16T00:01:48;12.80;99.90
2687;DHT22;1353;51.386;7.028;2022-10-16T00:04:14;12.80;99.90
2687;DHT22;1353;51.386;7.028;2022-10-16T00:06:41;12.80;99.90
2687;DHT22;1353;51.386;7.028;2022-10-16T00:09:09;12.80;99.90
2687;DHT22;1353;51.386;7.028;2022-10-16T00:11:38;13.00;99.90
2687;DHT22;1353;51.386;7.028;2022-10-16T00:14:07;13.00;99.90
2687;DHT22;1353;51.386;7.028;2022-10-16T00:16:34;13.00;99.90
2687;DHT22;1353;51.386;7.028;2022-10-16T00:19:02;13.00;99.90
2687;DHT22;1353;51.386;7.028;2022-10-16T00:21:30;13.00;99.90
2687;DHT22;1353;51.386;7.028;2022-10-16T00:23:59;13.00;99.90
2687;DHT22;1353;51.386;7.028;2022-10-16T00:26:28;13.00;99.90
2687;DHT22;1353;51.386;7.028;2022-10-16T00:28:55;12.90;99.90
2687;DHT22;1353;51.386;7.028;2022-10-16T00:31:22;12.90;99.90
2687;DHT22;1353;51.386;7.028;2022-10-16T00:33:50;12.90;99.90
2687;DHT22;1353;51.386;7.028;2022-10-16T00:36:18;12.80;99.90
2687;DHT22;1353;51.386;7.028;2022-10-16T00:38:45;12.80;99.90
2687;DHT22;1353;51.386;7.028;2022-10-16T00:41:16;12.70;99.90
2687;DHT22;1353;51.386;7.028;2022-10-16T00:43:46;12.70;99.90
2687;DHT22;1353;51.386;7.028;2022-10-16T00:46:16;12.70;99.90
2687;DHT22;1353;51.386;7.028;2022-10-16T00:48:49;12.70;99.90
2687;DHT22;1353;51.386;7.028;2022-10-16T00:51:19;12.70;99.90
2687;DHT22;1353;51.386;7.028;2022-10-16T00:53:46;12.70;99.90
2687;DHT22;1353;51.386;7.028;2022-10-16T00:56:13;12.70;99.90
2687;DHT22;1353;51.386;7.028;2022-10-16T00:58:39;12.70;99.90
2687;DHT22;1353;51.386;7.028;2022-10-16T01:01:08;12.60;99.90
2687;DHT22;1353;51.386;7.028;2022-10-16T01:03:36;12.50;99.90
2687;DHT22;1353;51.386;7.028;2022-10-16T01:06:14;12.50;99.90
2687;DHT22;1353;51.386;7.028;2022-10-16T01:08:53;12.50;99.90
2687;DHT22;1353;51.386;7.028;2022-10-16T01:11:24;12.60;99.90
2687;DHT22;1353;51.386;7.028;2022-10-16T01:13:55;12.50;99.90
2687;DHT22;1353;51.386;7.028;2022-10-16T01:16:30;12.50;99.90
2687;DHT22;1353;51.386;7.028;2022-10-16T01:19:08;12.40;99.90
2687;DHT22;1353;51.386;7.028;2022-10-16T01:21:39;12.40;99.90
2687;DHT22;1353;51.386;7.028;2022-10-16T01:24:11;12.40;99.90
2687;DHT22;1353;51.386;7.028;2022-10-16T01:27:00;12.40;99.90
2687;DHT22;1353;51.386;7.028;2022-10-16T01:29:30;12.30;99.90
2687;DHT22;1353;51.386;7.028;2022-10-16T01:32:03;12.30;99.90
2687;DHT22;1353;51.386;7.028;2022-10-16T01:34:35;12.50;99.90
2687;DHT22;1353;51.386;7.028;2022-10-16T01:37:07;12.40;99.90
2687;DHT22;1353;51.386;7.028;2022-10-16T01:39:36;12.40;99.90
2687;DHT22;1353;51.386;7.028;2022-10-16T01:42:09;12.40;99.90
2687;DHT22;1353;51.386;7.028;2022-10-16T01:44:38;12.30;99.90
2687;DHT22;1353;51.386;7.028;2022-10-16T01:47:07;12.40;99.90
2687;DHT22;1353;51.386;7.028;2022-10-16T01:49:37;12.40;99.90
2687;DHT22;1353;51.386;7.028;2022-10-16T01:52:07;12.40;99.90
2687;DHT22;1353;51.386;7.028;2022-10-16T01:54:37;12.40;99.90
2687;DHT22;1353;51.386;7.028;2022-10-16T01:57:07;12.50;99.90
2687;DHT22;1353;51.386;7.028;2022-10-16T01:59:38;12.60;99.90
2687;DHT22;1353;51.386;7.028;2022-10-16T02:02:07;12.70;99.90
2687;DHT22;1353;51.386;7.028;2022-10-16T02:04:39;12.60;99.90
2687;DHT22;1353;51.386;7.028;2022-10-16T02:07:09;12.70;99.90
2687;DHT22;1353;51.386;7.028;2022-10-16T02:09:36;12.80;99.90
2687;DHT22;1353;51.386;7.028;2022-10-16T02:12:09;13.00;99.90
2687;DHT22;1353;51.386;7.028;2022-10-16T02:14:39;12.90;99.90
2687;DHT22;1353;51.386;7.028;2022-10-16T02:17:11;12.90;99.90
2687;DHT22;1353;51.386;7.028;2022-10-16T02:19:38;12.80;99.90
2687;DHT22;1353;51.386;7.028;2022-10-16T02:22:08;12.90;99.90
2687;DHT22;1353;51.386;7.028;2022-10-16T02:24:39;12.90;99.90
2687;DHT22;1353;51.386;7.028;2022-10-16T02:27:14;12.90;99.90
2687;DHT22;1353;51.386;7.028;2022-10-16T02:29:47;12.80;99.90
2687;DHT22;1353;51.386;7.028;2022-10-16T02:32:17;12.60;99.90
2687;DHT22;1353;51.386;7.028;2022-10-16T02:34:47;12.70;99.90
2687;DHT22;1353;51.386;7.028;2022-10-16T02:37:15;12.90;99.90
2687;DHT22;1353;51.386;7.028;2022-10-16T02:39:43;12.90;99.90
2687;DHT22;1353;51.386;7.028;2022-10-16T02:42:12;12.90;99.90
2687;DHT22;1353;51.386;7.028;2022-10-16T02:44:38;12.90;99.90
2687;DHT22;1353;51.386;7.028;2022-10-16T02:47:05;12.90;99.90
2687;DHT22;1353;51.386;7.028;2022-10-16T02:49:32;13.00;99.90
2687;DHT22;1353;51.386;7.028;2022-10-16T02:51:59;13.10;99.90
2687;DHT22;1353;51.386;7.028;2022-10-16T02:54:25;13.10;99.90
2687;DHT22;1353;51.386;7.028;2022-10-16T02:56:52;13.20;99.90
2687;DHT22;1353;51.386;7.028;2022-10-16T02:59:20;13.20;99.90
2687;DHT22;1353;51.386;7.028;2022-10-16T03:01:47;13.30;99.90
2687;DHT22;1353;51.386;7.028;2022-10-16T03:04:14;13.40;99.90
2687;DHT22;1353;51.386;7.028;2022-10-16T03:06:40;13.20;99.90
2687;DHT22;1353;51.386;7.028;2022-10-16T03:09:07;13.10;99.90
2687;DHT22;1353;51.386;7.028;2022-10-16T03:11:34;13.10;99.90
2687;DHT22;1353;51.386;7.028;2022-10-16T03:14:01;13.10;99.90
2687;DHT22;1353;51.386;7.028;2022-10-16T03:16:29;13.10;99.90
2687;DHT22;1353;51.386;7.028;2022-10-16T03:18:56;13.00;99.90
2687;DHT22;1353;51.386;7.028;2022-10-16T03:21:22;13.00;99.90
2687;DHT22;1353;51.386;7.028;2022-10-16T03:23:49;12.90;99.90
2687;DHT22;1353;51.386;7.028;2022-10-16T03:26:16;12.90;99.90
2687;DHT22;1353;51.386;7.028;2022-10-16T03:28:42;12.80;99.90
2687;DHT22;1353;51.386;7.028;2022-10-16T03:31:09;12.70;99.90
2687;DHT22;1353;51.386;7.028;2022-10-16T03:33:37;12.70;99.90
2687;DHT22;1353;51.386;7.028;2022-10-16T03:36:04;12.60;99.90
2687;DHT22;1353;51.386;7.028;2022-10-16T03:38:31;12.60;99.90
2687;DHT22;1353;51.386;7.028;2022-10-16T03:40:58;12.80;99.90
2687;DHT22;1353;51.386;7.028;2022-10-16T03:43:24;12.80;99.90
2687;DHT22;1353;51.386;7.028;2022-10-16T03:45:51;12.80;99.90
2687;DHT22;1353;51.386;7.028;2022-10-16T03:48:18;12.90;99.90
2687;DHT22;1353;51.386;7.028;2022-10-16T03:50:46;12.80;99.90
2687;DHT22;1353;51.386;7.028;2022-10-16T03:53:13;12.70;99.90
2687;DHT22;1353;51.386;7.028;2022-10-16T03:55:41;12.60;99.90
2687;DHT22;1353;51.386;7.028;2022-10-16T03:58:08;12.60;99.90
2687;DHT22;1353;51.386;7.028;2022-10-16T04:00:35;12.50;99.90
2687;DHT22;1353;51.386;7.028;2022-10-16T04:03:01;12.50;99.90
2687;DHT22;1353;51.386;7.028;2022-10-16T04:05:28;12.40;99.90
2687;DHT22;1353;51.386;7.028;2022-10-16T04:07:56;12.30;99.90
2687;DHT22;1353;51.386;7.028;2022-10-16T04:10:23;12.30;99.90
2687;DHT22;1353;51.386;7.028;2022-10-16T04:12:49;12.40;99.90
2687;DHT22;1353;51.386;7.028;2022-10-16T04:15:16;12.20;99.90
2687;DHT22;1353;51.386;7.028;2022-10-16T04:17:43;12.20;99.90
2687;DHT22;1353;51.386;7.028;2022-10-16T04:20:10;12.10;99.90
2687;DHT22;1353;51.386;7.028;2022-10-16T04:22:36;12.10;99.90
2687;DHT22;1353;51.386;7.028;2022-10-16T04:25:05;12.00;99.90
2687;DHT22;1353;51.386;7.028;2022-10-16T04:27:32;12.00;99.90
2687;DHT22;1353;51.386;7.028;2022-10-16T04:29:59;12.20;99.90
2687;DHT22;1353;51.386;7.028;2022-10-16T04:32:26;12.00;99.90
2687;DHT22;1353;51.386;7.028;2022-10-16T04:34:53;12.10;99.90
2687;DHT22;1353;51.386;7.028;2022-10-16T04:37:23;12.10;99.90
2687;DHT22;1353;51.386;7.028;2022-10-16T04:39:50;12.00;99.90
2687;DHT22;1353;51.386;7.028;2022-10-16T04:42:18;12.10;99.90
2687;DHT22;1353;51.386;7.028;2022-10-16T04:44:44;12.10;99.90
2687;DHT22;1353;51.386;7.028;2022-10-16T04:47:11;12.10;99.90
2687;DHT22;1353;51.386;7.028;2022-10-16T04:49:38;12.10;99.90
2687;DHT22;1353;51.386;7.028;2022-10-16T04:52:05;12.10;99.90
2687;DHT22;1353;51.386;7.028;2022-10-16T04:54:34;12.00;99.90
2687;DHT22;1353;51.386;7.028;2022-10-16T04:57:00;11.90;99.90
2687;DHT22;1353;51.386;7.028;2022-10-16T04:59:28;12.10;99.90
2687;DHT22;1353;51.386;7.028;2022-10-16T05:01:55;12.10;99.90
2687;DHT22;1353;51.386;7.028;2022-10-16T05:04:22;12.10;99.90
2687;DHT22;1353;51.386;7.028;2022-10-16T05:06:49;12.10;99.90
2687;DHT22;1353;51.386;7.028;2022-10-16T05:09:16;12.20;99.90
2687;DHT22;1353;51.386;7.028;2022-10-16T05:11:43;12.10;99.90
2687;DHT22;1353;51.386;7.028;2022-10-16T05:14:09;12.20;99.90
2687;DHT22;1353;51.386;7.028;2022-10-16T05:16:37;12.30;99.90
2687;DHT22;1353;51.386;7.028;2022-10-16T05:19:04;12.20;99.90
2687;DHT22;1353;51.386;7.028;2022-10-16T05:21:31;12.10;99.90
2687;DHT22;1353;51.386;7.028;2022-10-16T05:23:58;12.00;99.90
2687;DHT22;1353;51.386;7.028;2022-10-16T05:26:24;12.00;99.90
2687;DHT22;1353;51.386;7.028;2022-10-16T05:28:51;12.10;99.90
2687;DHT22;1353;51.386;7.028;2022-10-16T05:31:18;12.00;99.90
2687;DHT22;1353;51.386;7.028;2022-10-16T05:33:46;11.90;99.90
2687;DHT22;1353;51.386;7.028;2022-10-16T05:36:14;11.90;99.90
2687;DHT22;1353;51.386;7.028;2022-10-16T05:38:40;12.10;99.90
2687;DHT22;1353;51.386;7.028;2022-10-16T05:41:07;12.10;99.90
2687;DHT22;1353;51.386;7.028;2022-10-16T05:43:34;12.00;99.90
2687;DHT22;1353;51.386;7.028;2022-10-16T05:46:03;12.00;99.90
2687;DHT22;1353;51.386;7.028;2022-10-16T05:48:30;12.00;99.90
2687;DHT22;1353;51.386;7.028;2022-10-16T05:51:00;11.90;99.90
2687;DHT22;1353;51.386;7.028;2022-10-16T05:53:27;12.00;99.90
2687;DHT22;1353;51.386;7.028;2022-10-16T05:55:55;12.00;99.90
2687;DHT22;1353;51.386;7.028;2022-10-16T05:58:22;11.90;99.90
2687;DHT22;1353;51.386;7.028;2022-10-16T06:00:56;12.00;99.90
2687;DHT22;1353;51.386;7.028;2022-10-16T06:03:23;12.00;99.90
2687;DHT22;1353;51.386;7.028;2022-10-16T06:05:50;12.00;99.90
2687;DHT22;1353;51.386;7.028;2022-10-16T06:08:19;12.00;99.90
2687;DHT22;1353;51.386;7.028;2022-10-16T06:10:46;12.00;99.90
2687;DHT22;1353;51.386;7.028;2022-10-16T06:13:14;12.00;99.90
2687;DHT22;1353;51.386;7.028;2022-10-16T06:15:41;12.00;99.90
2687;DHT22;1353;51.386;7.028;2022-10-16T06:18:09;12.10;99.90
2687;DHT22;1353;51.386;7.028;2022-10-16T06:20:36;12.20;99.90
2687;DHT22;1353;51.386;7.028;2022-10-16T06:23:03;12.30;99.90
2687;DHT22;1353;51.386;7.028;2022-10-16T06:25:32;12.30;99.90
2687;DHT22;1353;51.386;7.028;2022-10-16T06:27:58;12.30;99.90
2687;DHT22;1353;51.386;7.028;2022-10-16T06:30:25;12.30;99.90
2687;DHT22;1353;51.386;7.028;2022-10-16T06:32:52;12.30;99.90
2687;DHT22;1353;51.386;7.028;2022-10-16T06:35:18;12.40;99.90
2687;DHT22;1353;51.386;7.028;2022-10-16T06:37:45;12.80;99.90
2687;DHT22;1353;51.386;7.028;2022-10-16T06:40:12;12.70;99.90
2687;DHT22;1353;51.386;7.028;2022-10-16T06:42:41;12.80;99.90
2687;DHT22;1353;51.386;7.028;2022-10-16T06:45:09;13.00;99.90
2687;DHT22;1353;51.386;7.028;2022-10-16T06:47:36;13.70;99.90
2687;DHT22;1353;51.386;7.028;2022-10-16T06:50:03;13.70;99.90
2687;DHT22;1353;51.386;7.028;2022-10-16T06:52:32;13.40;99.90
2687;DHT22;1353;51.386;7.028;2022-10-16T06:54:58;13.20;99.90
2687;DHT22;1353;51.386;7.028;2022-10-16T06:57:25;13.20;99.90
2687;DHT22;1353;51.386;7.028;2022-10-16T06:59:53;13.10;99.90
2687;DHT22;1353;51.386;7.028;2022-10-16T07:02:20;13.20;99.90
2687;DHT22;1353;51.386;7.028;2022-10-16T07:04:47;13.70;99.90
2687;DHT22;1353;51.386;7.028;2022-10-16T07:07:14;13.90;99.90
2687;DHT22;1353;51.386;7.028;2022-10-16T07:09:40;13.90;99.90
2687;DHT22;1353;51.386;7.028;2022-10-16T07:12:07;14.10;99.90
2687;DHT22;1353;51.386;7.028;2022-10-16T07:14:34;14.40;99.90
2687;DHT22;1353;51.386;7.028;2022-10-16T07:17:02;14.10;99.90
2687;DHT22;1353;51.386;7.028;2022-10-16T07:19:29;14.20;99.90
2687;DHT22;1353;51.386;7.028;2022-10-16T07:21:56;14.20;99.90
2687;DHT22;1353;51.386;7.028;2022-10-16T07:24:22;14.00;99.90
2687;DHT22;1353;51.386;7.028;2022-10-16T07:26:50;13.70;99.90
2687;DHT22;1353;51.386;7.028;2022-10-16T07:29:18;13.50;99.90
2687;DHT22;1353;51.386;7.028;2022-10-16T07:31:46;13.30;99.90
2687;DHT22;1353;51.386;7.028;2022-10-16T07:34:16;13.40;99.90
2687;DHT22;1353;51.386;7.028;2022-10-16T07:36:43;13.30;99.90
2687;DHT22;1353;51.386;7.028;2022-10-16T07:39:11;13.40;99.90
2687;DHT22;1353;51.386;7.028;2022-10-16T07:41:38;15.40;99.90
2687;DHT22;1353;51.386;7.028;2022-10-16T07:44:04;16.80;99.90
2687;DHT22;1353;51.386;7.028;2022-10-16T07:46:32;17.70;99.90
2687;DHT22;1353;51.386;7.028;2022-10-16T07:49:01;18.50;99.90
2687;DHT22;1353;51.386;7.028;2022-10-16T07:51:29;18.60;99.90
2687;DHT22;1353;51.386;7.028;2022-10-16T07:53:56;18.90;99.90
2687;DHT22;1353;51.386;7.028;2022-10-16T07:56:23;19.40;99.90
2687;DHT22;1353;51.386;7.028;2022-10-16T07:58:50;19.40;99.90
2687;DHT22;1353;51.386;7.028;2022-10-16T08:01:18;20.00;99.90
2687;DHT22;1353;51.386;7.028;2022-10-16T08:03:46;20.20;99.90
2687;DHT22;1353;51.386;7.028;2022-10-16T08:06:14;19.80;99.90
2687;DHT22;1353;51.386;7.028;2022-10-16T08:08:42;20.10;99.90
2687;DHT22;1353;51.386;7.028;2022-10-16T08:11:09;20.10;99.90
2687;DHT22;1353;51.386;7.028;2022-10-16T08:13:36;20.50;99.90
2687;DHT22;1353;51.386;7.028;2022-10-16T08:16:04;20.00;99.90
2687;DHT22;1353;51.386;7.028;2022-10-16T08:18:33;20.60;99.90
2687;DHT22;1353;51.386;7.028;2022-10-16T08:21:00;20.50;99.90
2687;DHT22;1353;51.386;7.028;2022-10-16T08:23:27;20.20;99.90
2687;DHT22;1353;51.386;7.028;2022-10-16T08:26:01;20.40;99.90
2687;DHT22;1353;51.386;7.028;2022-10-16T08:28:28;19.90;99.90
2687;DHT22;1353;51.386;7.028;2022-10-16T08:30:54;19.90;99.90
2687;DHT22;1353;51.386;7.028;2022-10-16T08:33:22;20.20;99.90
2687;DHT22;1353;51.386;7.028;2022-10-16T08:35:52;20.40;99.90
2687;DHT22;1353;51.386;7.028;2022-10-16T08:38:19;20.40;99.90
2687;DHT22;1353;51.386;7.028;2022-10-16T08:40:46;20.30;99.90
2687;DHT22;1353;51.386;7.028;2022-10-16T08:43:47;20.40;99.90
2687;DHT22;1353;51.386;7.028;2022-10-16T08:46:27;20.00;99.90
2687;DHT22;1353;51.386;7.028;2022-10-16T08:48:57;20.50;99.90
2687;DHT22;1353;51.386;7.028;2022-10-16T08:51:27;21.20;99.90
2687;DHT22;1353;51.386;7.028;2022-10-16T08:53:57;21.90;99.90
2687;DHT22;1353;51.386;7.028;2022-10-16T08:56:25;21.70;99.90
2687;DHT22;1353;51.386;7.028;2022-10-16T08:58:54;21.20;99.90
2687;DHT22;1353;51.386;7.028;2022-10-16T09:01:22;21.10;99.90
2687;DHT22;1353;51.386;7.028;2022-10-16T09:04:05;21.20;99.90
2687;DHT22;1353;51.386;7.028;2022-10-16T09:06:45;21.20;99.90
2687;DHT22;1353;51.386;7.028;2022-10-16T09:09:36;21.30;99.90
2687;DHT22;1353;51.386;7.028;2022-10-16T09:12:12;21.20;99.90
2687;DHT22;1353;51.386;7.028;2022-10-16T09:14:57;21.20;99.90
2687;DHT22;1353;51.386;7.028;2022-10-16T09:17:32;20.40;99.90
2687;DHT22;1353;51.386;7.028;2022-10-16T09:20:18;20.30;99.90
2687;DHT22;1353;51.386;7.028;2022-10-16T09:22:45;20.80;99.90
2687;DHT22;1353;51.386;7.028;2022-10-16T09:25:15;20.10;99.90
2687;DHT22;1353;51.386;7.028;2022-10-16T09:27:44;21.50;99.90
2687;DHT22;1353;51.386;7.028;2022-10-16T09:30:16;21.10;99.90
2687;DHT22;1353;51.386;7.028;2022-10-16T09:32:45;21.80;99.90
2687;DHT22;1353;51.386;7.028;2022-10-16T09:35:14;22.10;99.90
2687;DHT22;1353;51.386;7.028;2022-10-16T09:37:43;22.30;99.90
2687;DHT22;1353;51.386;7.028;2022-10-16T09:40:13;21.20;99.90
2687;DHT22;1353;51.386;7.028;2022-10-16T09:42:50;20.90;99.90
2687;DHT22;1353;51.386;7.028;2022-10-16T09:45:23;21.80;99.90
2687;DHT22;1353;51.386;7.028;2022-10-16T09:47:50;22.00;99.90
2687;DHT22;1353;51.386;7.028;2022-10-16T09:50:23;20.80;99.90
2687;DHT22;1353;51.386;7.028;2022-10-16T09:53:02;20.50;99.90
2687;DHT22;1353;51.386;7.028;2022-10-16T09:55:29;19.30;99.90
2687;DHT22;1353;51.386;7.028;2022-10-16T09:57:56;20.60;99.90
2687;DHT22;1353;51.386;7.028;2022-10-16T10:00:25;21.90;99.90
2687;DHT22;1353;51.386;7.028;2022-10-16T10:02:52;21.70;99.90
2687;DHT22;1353;51.386;7.028;2022-10-16T10:05:21;22.30;99.90
2687;DHT22;1353;51.386;7.028;2022-10-16T10:07:55;22.10;99.90
2687;DHT22;1353;51.386;7.028;2022-10-16T10:10:24;23.00;99.90
2687;DHT22;1353;51.386;7.028;2022-10-16T10:12:51;22.70;99.90
2687;DHT22;1353;51.386;7.028;2022-10-16T10:15:18;23.50;99.90
2687;DHT22;1353;51.386;7.028;2022-10-16T10:17:50;23.40;99.90
2687;DHT22;1353;51.386;7.028;2022-10-16T10:20:26;22.40;99.90
2687;DHT22;1353;51.386;7.028;2022-10-16T10:22:55;22.30;99.90
2687;DHT22;1353;51.386;7.028;2022-10-16T10:25:39;22.60;99.90
2687;DHT22;1353;51.386;7.028;2022-10-16T10:28:29;21.40;99.90
2687;DHT22;1353;51.386;7.028;2022-10-16T10:31:03;21.10;99.90
2687;DHT22;1353;51.386;7.028;2022-10-16T10:33:46;21.80;99.90
2687;DHT22;1353;51.386;7.028;2022-10-16T10:36:26;21.10;99.90
2687;DHT22;1353;51.386;7.028;2022-10-16T10:38:58;20.60;99.90
2687;DHT22;1353;51.386;7.028;2022-10-16T10:42:07;19.70;99.90
2687;DHT22;1353;51.386;7.028;2022-10-16T10:44:49;20.30;99.90
2687;DHT22;1353;51.386;7.028;2022-10-16T10:47:23;20.40;99.90
2687;DHT22;1353;51.386;7.028;2022-10-16T10:50:03;20.20;99.90
2687;DHT22;1353;51.386;7.028;2022-10-16T10:52:43;20.00;99.90
2687;DHT22;1353;51.386;7.028;2022-10-16T10:55:21;20.20;99.90
2687;DHT22;1353;51.386;7.028;2022-10-16T10:58:20;20.20;99.90
2687;DHT22;1353;51.386;7.028;2022-10-16T11:00:54;20.00;99.90
2687;DHT22;1353;51.386;7.028;2022-10-16T11:03:40;19.80;99.90
2687;DHT22;1353;51.386;7.028;2022-10-16T11:06:14;19.10;99.90
2687;DHT22;1353;51.386;7.028;2022-10-16T11:08:45;19.20;99.90
2687;DHT22;1353;51.386;7.028;2022-10-16T11:11:17;18.90;99.90
2687;DHT22;1353;51.386;7.028;2022-10-16T11:13:51;19.00;99.90
2687;DHT22;1353;51.386;7.028;2022-10-16T11:16:23;18.90;99.90
2687;DHT22;1353;51.386;7.028;2022-10-16T11:19:02;19.00;99.90
2687;DHT22;1353;51.386;7.028;2022-10-16T11:21:36;18.80;99.90
2687;DHT22;1353;51.386;7.028;2022-10-16T11:24:13;18.30;99.90
2687;DHT22;1353;51.386;7.028;2022-10-16T11:26:44;18.20;99.90
2687;DHT22;1353;51.386;7.028;2022-10-16T11:29:19;18.00;99.90
2687;DHT22;1353;51.386;7.028;2022-10-16T11:31:51;18.20;99.90
2687;DHT22;1353;51.386;7.028;2022-10-16T11:34:24;18.20;99.90
2687;DHT22;1353;51.386;7.028;2022-10-16T11:36:56;18.20;99.90
2687;DHT22;1353;51.386;7.028;2022-10-16T11:39:25;18.40;99.90
2687;DHT22;1353;51.386;7.028;2022-10-16T11:41:55;18.50;99.90
2687;DHT22;1353;51.386;7.028;2022-10-16T11:44:45;18.60;99.90
2687;DHT22;1353;51.386;7.028;2022-10-16T11:47:31;18.60;99.90
2687;DHT22;1353;51.386;7.028;2022-10-16T11:50:02;18.40;99.90
2687;DHT22;1353;51.386;7.028;2022-10-16T11:52:36;18.50;99.90
2687;DHT22;1353;51.386;7.028;2022-10-16T11:55:13;18.50;99.90
2687;DHT22;1353;51.386;7.028;2022-10-16T11:57:45;18.60;99.90
2687;DHT22;1353;51.386;7.028;2022-10-16T12:00:20;18.50;99.90
2687;DHT22;1353;51.386;7.028;2022-10-16T12:02:54;18.50;99.90
2687;DHT22;1353;51.386;7.028;2022-10-16T12:05:29;18.70;99.90
2687;DHT22;1353;51.386;7.028;2022-10-16T12:08:08;18.40;99.90
2687;DHT22;1353;51.386;7.028;2022-10-16T12:10:37;18.60;99.90
2687;DHT22;1353;51.386;7.028;2022-10-16T12:13:05;18.50;99.90
2687;DHT22;1353;51.386;7.028;2022-10-16T12:15:33;18.40;99.90
2687;DHT22;1353;51.386;7.028;2022-10-16T12:18:01;18.30;99.90
2687;DHT22;1353;51.386;7.028;2022-10-16T12:20:30;18.20;99.90
2687;DHT22;1353;51.386;7.028;2022-10-16T12:22:59;18.30;99.90
2687;DHT22;1353;51.386;7.028;2022-10-16T12:25:30;18.30;99.90
2687;DHT22;1353;51.386;7.028;2022-10-16T12:28:00;18.50;99.90
2687;DHT22;1353;51.386;7.028;2022-10-16T12:30:29;18.60;99.90
2687;DHT22;1353;51.386;7.028;2022-10-16T12:32:58;18.80;99.90
2687;DHT22;1353;51.386;7.028;2022-10-16T12:35:29;18.80;99.90
2687;DHT22;1353;51.386;7.028;2022-10-16T12:38:06;18.60;99.90
2687;DHT22;1353;51.386;7.028;2022-10-16T12:40:36;18.80;99.90
2687;DHT22;1353;51.386;7.028;2022-10-16T12:43:28;18.90;99.90
2687;DHT22;1353;51.386;7.028;2022-10-16T12:46:03;19.20;99.90
2687;DHT22;1353;51.386;7.028;2022-10-16T12:48:30;19.40;99.90
2687;DHT22;1353;51.386;7.028;2022-10-16T12:50:57;19.60;99.90
2687;DHT22;1353;51.386;7.028;2022-10-16T12:53:25;19.60;99.90
2687;DHT22;1353;51.386;7.028;2022-10-16T12:56:04;19.50;99.90
2687;DHT22;1353;51.386;7.028;2022-10-16T12:58:56;19.40;99.90
2687;DHT22;1353;51.386;7.028;2022-10-16T13:01:37;19.10;99.90
2687;DHT22;1353;51.386;7.028;2022-10-16T13:04:33;19.00;99.90
2687;DHT22;1353;51.386;7.028;2022-10-16T13:07:18;18.90;99.90
2687;DHT22;1353;51.386;7.028;2022-10-16T13:09:55;19.00;99.90
2687;DHT22;1353;51.386;7.028;2022-10-16T13:12:45;19.00;99.90
2687;DHT22;1353;51.386;7.028;2022-10-16T13:15:24;18.90;99.90
2687;DHT22;1353;51.386;7.028;2022-10-16T13:17:59;18.90;99.90
2687;DHT22;1353;51.386;7.028;2022-10-16T13:20:33;18.90;99.90
2687;DHT22;1353;51.386;7.028;2022-10-16T13:23:09;19.00;99.90
2687;DHT22;1353;51.386;7.028;2022-10-16T13:25:47;18.90;99.90
2687;DHT22;1353;51.386;7.028;2022-10-16T13:28:20;18.60;99.90
2687;DHT22;1353;51.386;7.028;2022-10-16T13:30:52;18.60;99.90
2687;DHT22;1353;51.386;7.028;2022-10-16T13:33:23;18.60;99.90
2687;DHT22;1353;51.386;7.028;2022-10-16T13:35:52;18.70;99.90
2687;DHT22;1353;51.386;7.028;2022-10-16T13:38:20;18.80;99.90
2687;DHT22;1353;51.386;7.028;2022-10-16T13:40:49;19.00;99.90
2687;DHT22;1353;51.386;7.028;2022-10-16T13:43:18;19.00;99.90
2687;DHT22;1353;51.386;7.028;2022-10-16T13:45:53;19.30;99.90
2687;DHT22;1353;51.386;7.028;2022-10-16T13:48:20;19.20;99.90
2687;DHT22;1353;51.386;7.028;2022-10-16T13:51:02;19.20;99.90
2687;DHT22;1353;51.386;7.028;2022-10-16T13:53:30;19.20;99.90
2687;DHT22;1353;51.386;7.028;2022-10-16T13:55:57;19.00;99.90
2687;DHT22;1353;51.386;7.028;2022-10-16T13:58:26;19.10;99.90
2687;DHT22;1353;51.386;7.028;2022-10-16T14:00:56;19.10;99.90
2687;DHT22;1353;51.386;7.028;2022-10-16T14:03:24;19.40;99.90
2687;DHT22;1353;51.386;7.028;2022-10-16T14:05:52;19.60;99.90
2687;DHT22;1353;51.386;7.028;2022-10-16T14:08:20;19.70;99.90
2687;DHT22;1353;51.386;7.028;2022-10-16T14:10:49;19.70;99.90
2687;DHT22;1353;51.386;7.028;2022-10-16T14:13:18;19.70;99.90
2687;DHT22;1353;51.386;7.028;2022-10-16T14:15:49;20.00;99.90
2687;DHT22;1353;51.386;7.028;2022-10-16T14:18:20;19.90;99.90
2687;DHT22;1353;51.386;7.028;2022-10-16T14:20:48;19.80;99.90
2687;DHT22;1353;51.386;7.028;2022-10-16T14:23:23;19.50;99.90
2687;DHT22;1353;51.386;7.028;2022-10-16T14:26:04;19.20;99.90
2687;DHT22;1353;51.386;7.028;2022-10-16T14:28:31;18.80;99.90
2687;DHT22;1353;51.386;7.028;2022-10-16T14:31:00;18.90;99.90
2687;DHT22;1353;51.386;7.028;2022-10-16T14:33:32;18.90;99.90
2687;DHT22;1353;51.386;7.028;2022-10-16T14:36:05;18.80;99.90
2687;DHT22;1353;51.386;7.028;2022-10-16T14:38:38;18.90;99.90
2687;DHT22;1353;51.386;7.028;2022-10-16T14:41:06;18.80;99.90
2687;DHT22;1353;51.386;7.028;2022-10-16T14:43:34;19.00;99.90
2687;DHT22;1353;51.386;7.028;2022-10-16T14:46:06;19.10;99.90
2687;DHT22;1353;51.386;7.028;2022-10-16T14:48:41;19.00;99.90
2687;DHT22;1353;51.386;7.028;2022-10-16T14:51:13;18.90;99.90
2687;DHT22;1353;51.386;7.028;2022-10-16T14:53:40;18.60;99.90
2687;DHT22;1353;51.386;7.028;2022-10-16T14:56:08;18.40;99.90
2687;DHT22;1353;51.386;7.028;2022-10-16T14:58:35;18.30;99.90
2687;DHT22;1353;51.386;7.028;2022-10-16T15:01:04;18.30;99.90
2687;DHT22;1353;51.386;7.028;2022-10-16T15:03:32;18.50;99.90
2687;DHT22;1353;51.386;7.028;2022-10-16T15:05:58;18.50;99.90
2687;DHT22;1353;51.386;7.028;2022-10-16T15:08:25;18.50;99.90
2687;DHT22;1353;51.386;7.028;2022-10-16T15:10:52;18.40;99.90
2687;DHT22;1353;51.386;7.028;2022-10-16T15:13:19;18.20;99.90
2687;DHT22;1353;51.386;7.028;2022-10-16T15:15:46;18.10;99.90
2687;DHT22;1353;51.386;7.028;2022-10-16T15:18:15;18.10;99.90
2687;DHT22;1353;51.386;7.028;2022-10-16T15:20:48;18.10;99.90
2687;DHT22;1353;51.386;7.028;2022-10-16T15:23:16;18.10;99.90
2687;DHT22;1353;51.386;7.028;2022-10-16T15:25:45;18.00;99.90
2687;DHT22;1353;51.386;7.028;2022-10-16T15:28:13;18.10;99.90
2687;DHT22;1353;51.386;7.028;2022-10-16T15:30:40;17.90;99.90
2687;DHT22;1353;51.386;7.028;2022-10-16T15:33:12;17.50;99.90
2687;DHT22;1353;51.386;7.028;2022-10-16T15:35:41;17.40;99.90
2687;DHT22;1353;51.386;7.028;2022-10-16T15:38:10;17.20;99.90
2687;DHT22;1353;51.386;7.028;2022-10-16T15:40:37;17.10;99.90
2687;DHT22;1353;51.386;7.028;2022-10-16T15:43:04;17.00;99.90
2687;DHT22;1353;51.386;7.028;2022-10-16T15:45:31;16.90;99.90
2687;DHT22;1353;51.386;7.028;2022-10-16T15:47:57;16.80;99.90
2687;DHT22;1353;51.386;7.028;2022-10-16T15:50:24;16.80;99.90
2687;DHT22;1353;51.386;7.028;2022-10-16T15:52:52;16.80;99.90
2687;DHT22;1353;51.386;7.028;2022-10-16T15:55:19;16.80;99.90
2687;DHT22;1353;51.386;7.028;2022-10-16T15:57:46;16.70;99.90
2687;DHT22;1353;51.386;7.028;2022-10-16T16:00:14;16.60;99.90
2687;DHT22;1353;51.386;7.028;2022-10-16T16:02:43;16.50;99.90
2687;DHT22;1353;51.386;7.028;2022-10-16T16:05:10;16.50;99.90
2687;DHT22;1353;51.386;7.028;2022-10-16T16:07:38;16.40;99.90
2687;DHT22;1353;51.386;7.028;2022-10-16T16:10:09;16.30;99.90
2687;DHT22;1353;51.386;7.028;2022-10-16T16:12:37;16.30;99.90
2687;DHT22;1353;51.386;7.028;2022-10-16T16:15:04;16.30;99.90
2687;DHT22;1353;51.386;7.028;2022-10-16T16:17:35;16.20;99.90
2687;DHT22;1353;51.386;7.028;2022-10-16T16:20:02;16.20;99.90
2687;DHT22;1353;51.386;7.028;2022-10-16T16:22:30;16.10;99.90